createdAt,value
2023-01-12T00:01:39.072Z,98371.19
2023-01-12T00:04:06.853Z,98380.09
2023-01-12T00:06:34.309Z,98383.78
2023-01-12T00:09:04.879Z,98378.59
2023-01-12T00:11:31.714Z,98379.44
2023-01-12T00:13:59.121Z,98376.78
2023-01-12T00:16:35.925Z,98387.56
2023-01-12T00:19:12.887Z,98386.19
2023-01-12T00:21:53.392Z,98394.94
2023-01-12T00:24:20.401Z,98394.72
2023-01-12T00:26:48.593Z,98395.16
2023-01-12T00:29:16.526Z,98392.06
2023-01-12T00:31:43.592Z,98394.94
2023-01-12T00:34:10.664Z,98397.31
2023-01-12T00:36:37.540Z,98407.37
2023-01-12T00:39:05.932Z,98405.06
2023-01-12T00:41:51.338Z,98402.69
2023-01-12T00:44:36.847Z,98409.97
2023-01-12T00:47:06.280Z,98416.81
2023-01-12T00:49:33.223Z,98419.31
2023-01-12T00:52:00.168Z,98418.09
2023-01-12T00:54:27.018Z,98414.63
2023-01-12T00:56:53.872Z,98413.22
2023-01-12T00:59:20.767Z,98420.19
2023-01-12T01:01:48.768Z,98420.66
2023-01-12T01:04:15.737Z,98419.59
2023-01-12T01:06:42.628Z,98431.72
2023-01-12T01:09:09.467Z,98429.72
2023-01-12T01:11:38.533Z,98432.97
2023-01-12T01:14:05.712Z,98443.56
2023-01-12T01:16:33.221Z,98442.69
2023-01-12T01:19:00.696Z,98436.47
2023-01-12T01:21:27.647Z,98427.16
2023-01-12T01:23:54.557Z,98427.78
2023-01-12T01:26:23.234Z,98422.72
2023-01-12T01:28:50.691Z,98420.31
2023-01-12T01:31:22.489Z,98428.81
2023-01-12T01:33:50.204Z,98421.72
2023-01-12T01:36:18.565Z,98426.81
2023-01-12T01:38:46.612Z,98415.59
2023-01-12T01:41:28.609Z,98406.47
2023-01-12T01:44:00.946Z,98401.81
2023-01-12T01:46:44.705Z,98406.38
2023-01-12T01:49:50.233Z,98415.22
2023-01-12T01:52:19.517Z,98409.94
2023-01-12T01:55:07.612Z,98383.63
2023-01-12T01:57:43.347Z,98375.22
2023-01-12T02:00:11.576Z,98379.09
2023-01-12T02:02:39.133Z,98392.19
2023-01-12T02:05:06.440Z,98386.38
2023-01-12T02:07:33.399Z,98382.81
2023-01-12T02:10:00.376Z,98377.06
2023-01-12T02:12:46.109Z,98382.22
2023-01-12T02:15:31.918Z,98380.84
2023-01-12T02:18:28.219Z,98389.84
2023-01-12T02:21:05.824Z,98388.47
2023-01-12T02:23:58.669Z,98394.09
2023-01-12T02:26:29.174Z,98383.56
2023-01-12T02:29:07.896Z,98389.09
2023-01-12T02:31:56.571Z,98388.13
2023-01-12T02:34:51.073Z,98382.88
2023-01-12T02:37:32.977Z,98389.00
2023-01-12T02:40:15.063Z,98395.53
2023-01-12T02:42:47.714Z,98395.38
2023-01-12T02:45:26.565Z,98400.37
2023-01-12T02:48:01.086Z,98386.69
2023-01-12T02:50:37.001Z,98394.66
2023-01-12T02:53:10.797Z,98396.81
2023-01-12T02:55:38.077Z,98387.47
2023-01-12T02:58:06.887Z,98385.53
2023-01-12T03:00:36.150Z,98384.63
2023-01-12T03:03:03.042Z,98373.31
2023-01-12T03:05:29.904Z,98387.34
2023-01-12T03:07:59.321Z,98383.34
2023-01-12T03:10:43.013Z,98389.84
2023-01-12T03:13:13.719Z,98389.69
2023-01-12T03:15:43.914Z,98389.28
2023-01-12T03:18:15.539Z,98385.16
2023-01-12T03:21:22.108Z,98384.38
2023-01-12T03:23:54.200Z,98387.34
2023-01-12T03:26:23.837Z,98386.84
2023-01-12T03:28:55.314Z,98391.81
2023-01-12T03:31:30.294Z,98400.91
2023-01-12T03:33:57.367Z,98402.28
2023-01-12T03:36:29.934Z,98405.16
2023-01-12T03:39:05.858Z,98405.28
2023-01-12T03:41:49.738Z,98404.31
2023-01-12T03:44:48.464Z,98404.88
2023-01-12T03:47:21.814Z,98417.34
2023-01-12T03:50:10.196Z,98416.66
2023-01-12T03:52:37.736Z,98414.75
2023-01-12T03:55:06.503Z,98414.97
2023-01-12T03:57:34.163Z,98416.69
2023-01-12T04:00:01.383Z,98409.34
2023-01-12T04:02:28.245Z,98412.88
2023-01-12T04:04:55.134Z,98412.47
2023-01-12T04:07:23.279Z,98413.72
2023-01-12T04:09:50.125Z,98420.88
2023-01-12T04:12:16.764Z,98411.88
2023-01-12T04:14:47.781Z,98417.59
2023-01-12T04:17:16.138Z,98413.25
2023-01-12T04:19:43.049Z,98406.53
2023-01-12T04:22:32.600Z,98414.59
2023-01-12T04:24:59.459Z,98413.53
2023-01-12T04:27:26.142Z,98411.50
2023-01-12T04:29:55.078Z,98413.09
2023-01-12T04:32:22.011Z,98408.41
2023-01-12T04:34:48.896Z,98414.41
2023-01-12T04:37:15.991Z,98416.50
2023-01-12T04:39:52.877Z,98413.03
2023-01-12T04:42:38.169Z,98420.75
2023-01-12T04:45:05.394Z,98420.69
2023-01-12T04:47:33.801Z,98413.66
2023-01-12T04:50:00.646Z,98423.56
2023-01-12T04:52:27.287Z,98420.53
2023-01-12T04:54:56.670Z,98414.91
2023-01-12T04:57:23.699Z,98418.72
2023-01-12T04:59:50.539Z,98414.56
2023-01-12T05:02:17.197Z,98424.09
2023-01-12T05:04:44.044Z,98427.75
2023-01-12T05:07:10.683Z,98425.84
2023-01-12T05:09:55.979Z,98427.47
2023-01-12T05:12:22.863Z,98432.47
2023-01-12T05:14:50.280Z,98431.59
2023-01-12T05:17:17.541Z,98427.66
2023-01-12T05:19:44.400Z,98441.34
2023-01-12T05:22:11.294Z,98440.91
2023-01-12T05:24:38.122Z,98441.97
2023-01-12T05:27:04.802Z,98439.03
2023-01-12T05:29:31.662Z,98440.25
2023-01-12T05:31:58.536Z,98439.78
2023-01-12T05:34:25.395Z,98446.47
2023-01-12T05:36:52.276Z,98450.00
2023-01-12T05:39:19.829Z,98446.75
2023-01-12T05:42:21.329Z,98448.59
2023-01-12T05:44:48.188Z,98446.28
2023-01-12T05:47:15.022Z,98444.00
2023-01-12T05:49:43.705Z,98454.25
2023-01-12T05:52:10.578Z,98450.62
2023-01-12T05:54:37.468Z,98454.06
2023-01-12T05:57:04.684Z,98446.72
2023-01-12T05:59:31.512Z,98454.94
2023-01-12T06:01:58.254Z,98458.53
2023-01-12T06:04:25.478Z,98453.56
2023-01-12T06:06:53.361Z,98452.88
2023-01-12T06:09:20.247Z,98453.56
2023-01-12T06:12:45.427Z,98448.34
2023-01-12T06:15:12.265Z,98460.22
2023-01-12T06:17:38.995Z,98463.38
2023-01-12T06:20:06.947Z,98455.75
2023-01-12T06:22:33.843Z,98460.69
2023-01-12T06:25:00.663Z,98464.62
2023-01-12T06:27:27.385Z,98461.75
2023-01-12T06:29:54.242Z,98459.06
2023-01-12T06:32:20.946Z,98465.19
2023-01-12T06:34:47.801Z,98457.25
2023-01-12T06:37:15.931Z,98460.16
2023-01-12T06:39:42.819Z,98469.50
2023-01-12T06:42:28.687Z,98465.25
2023-01-12T06:44:56.531Z,98473.00
2023-01-12T06:47:23.490Z,98481.22
2023-01-12T06:49:53.787Z,98487.16
2023-01-12T06:52:22.255Z,98494.50
2023-01-12T06:54:49.190Z,98494.22
2023-01-12T06:57:16.573Z,98493.53
2023-01-12T06:59:43.445Z,98503.22
2023-01-12T07:02:13.169Z,98507.78
2023-01-12T07:04:41.214Z,98509.88
2023-01-12T07:07:09.217Z,98500.47
2023-01-12T07:09:36.170Z,98519.72
2023-01-12T07:12:03.829Z,98524.50
2023-01-12T07:14:30.725Z,98516.50
2023-01-12T07:16:57.661Z,98517.41
2023-01-12T07:19:24.550Z,98522.09
2023-01-12T07:21:51.416Z,98516.09
2023-01-12T07:24:18.291Z,98518.03
2023-01-12T07:26:45.188Z,98520.78
2023-01-12T07:29:12.209Z,98534.25
2023-01-12T07:31:39.707Z,98528.63
2023-01-12T07:34:06.762Z,98533.84
2023-01-12T07:36:33.703Z,98526.72
2023-01-12T07:39:02.679Z,98525.56
2023-01-12T07:52:03.580Z,98523.41
2023-01-12T07:54:30.773Z,98530.56
2023-01-12T07:56:59.015Z,98535.09
2023-01-12T07:59:27.410Z,98531.00
2023-01-12T08:01:57.040Z,98539.31
2023-01-12T08:04:23.920Z,98538.37
2023-01-12T08:06:50.771Z,98536.09
2023-01-12T08:09:20.377Z,98538.47
2023-01-12T08:11:47.271Z,98535.28
2023-01-12T08:14:27.664Z,98543.25
2023-01-12T08:16:56.633Z,98538.16
2023-01-12T08:19:31.248Z,98533.03
2023-01-12T08:22:00.050Z,98537.28
2023-01-12T08:24:30.895Z,98542.56
2023-01-12T08:26:59.411Z,98542.12
2023-01-12T08:29:34.852Z,98546.53
2023-01-12T08:32:05.002Z,98539.00
2023-01-12T08:34:32.421Z,98550.78
2023-01-12T08:37:00.874Z,98547.72
2023-01-12T08:39:29.628Z,98543.78
2023-01-12T08:41:56.552Z,98546.69
2023-01-12T08:44:23.586Z,98555.81
2023-01-12T08:46:54.342Z,98562.56
2023-01-12T08:49:24.558Z,98562.19
2023-01-12T08:51:51.513Z,98560.69
2023-01-12T08:54:19.795Z,98563.69
2023-01-12T08:56:46.862Z,98556.97
2023-01-12T08:59:13.840Z,98567.16
2023-01-12T09:01:40.922Z,98571.88
2023-01-12T09:04:08.069Z,98562.50
2023-01-12T09:06:37.527Z,98561.84
2023-01-12T09:09:06.775Z,98569.03
2023-01-12T09:11:33.685Z,98563.91
2023-01-12T09:14:00.692Z,98558.84
2023-01-12T09:16:28.225Z,98562.59
2023-01-12T09:18:55.449Z,98562.31
2023-01-12T09:21:23.757Z,98561.41
2023-01-12T09:23:53.107Z,98571.72
2023-01-12T09:26:23.054Z,98564.75
2023-01-12T09:28:51.718Z,98565.16
2023-01-12T09:31:20.796Z,98568.72
2023-01-12T09:33:47.724Z,98562.22
2023-01-12T09:36:16.838Z,98564.09
2023-01-12T09:38:44.943Z,98566.78
2023-01-12T09:41:41.862Z,98556.88
2023-01-12T09:44:41.818Z,98564.38
2023-01-12T09:47:24.295Z,98559.78
2023-01-12T09:50:09.974Z,98559.87
2023-01-12T09:52:51.151Z,98560.44
2023-01-12T09:55:20.914Z,98562.44
2023-01-12T09:58:24.741Z,98565.63
2023-01-12T10:00:52.300Z,98549.06
2023-01-12T10:03:30.258Z,98557.03
2023-01-12T10:06:00.643Z,98550.12
2023-01-12T10:08:38.147Z,98565.16
2023-01-12T10:11:11.378Z,98559.09
2023-01-12T10:14:07.043Z,98559.81
2023-01-12T10:16:52.655Z,98553.91
2023-01-12T10:19:26.114Z,98561.44
2023-01-12T10:21:54.210Z,98556.69
2023-01-12T10:24:23.608Z,98547.66
2023-01-12T10:27:03.820Z,98546.50
2023-01-12T10:29:32.663Z,98564.81
2023-01-12T10:31:59.580Z,98555.03
2023-01-12T10:34:26.463Z,98554.47
2023-01-12T10:36:58.105Z,98554.78
2023-01-12T10:39:37.487Z,98559.09
2023-01-12T10:42:36.168Z,98563.47
2023-01-12T10:45:16.509Z,98569.06
2023-01-12T10:47:45.193Z,98569.63
2023-01-12T10:50:34.085Z,98569.16
2023-01-12T10:53:04.442Z,98564.84
2023-01-12T10:55:34.230Z,98559.34
2023-01-12T10:58:01.553Z,98553.91
2023-01-12T11:00:29.076Z,98547.72
2023-01-12T11:02:56.139Z,98545.78
2023-01-12T11:05:31.132Z,98549.09
2023-01-12T11:07:58.462Z,98547.16
2023-01-12T11:10:35.855Z,98554.06
2023-01-12T11:13:05.774Z,98546.88
2023-01-12T11:15:39.325Z,98554.00
2023-01-12T11:18:24.535Z,98543.53
2023-01-12T11:21:05.339Z,98532.78
2023-01-12T11:23:42.402Z,98536.59
2023-01-12T11:26:18.108Z,98525.22
2023-01-12T11:28:52.299Z,98520.66
2023-01-12T11:31:29.223Z,98529.56
2023-01-12T11:34:04.419Z,98518.44
2023-01-12T11:36:39.392Z,98523.78
2023-01-12T11:39:18.642Z,98528.03
2023-01-12T11:42:14.132Z,98523.72
2023-01-12T11:44:49.562Z,98515.91
2023-01-12T11:47:21.878Z,98512.34
2023-01-12T11:50:19.039Z,98509.44
2023-01-12T11:52:46.041Z,98500.03
2023-01-12T11:55:17.873Z,98497.78
2023-01-12T11:58:23.162Z,98497.00
2023-01-12T12:00:57.997Z,98494.31
2023-01-12T12:03:40.538Z,98488.81
2023-01-12T12:06:19.247Z,98486.16
2023-01-12T12:09:07.919Z,98480.78
2023-01-12T12:11:41.804Z,98477.13
2023-01-12T12:14:29.152Z,98477.22
2023-01-12T12:17:13.691Z,98480.59
2023-01-12T12:19:57.136Z,98477.28
2023-01-12T12:22:31.422Z,98475.91
2023-01-12T12:25:23.870Z,98473.56
2023-01-12T12:28:07.390Z,98477.09
2023-01-12T12:30:52.586Z,98470.50
2023-01-12T12:33:45.089Z,98467.16
2023-01-12T12:36:51.451Z,98470.22
2023-01-12T12:39:30.487Z,98466.00
2023-01-12T12:42:53.560Z,98468.34
2023-01-12T12:45:29.292Z,98472.84
2023-01-12T12:48:14.592Z,98460.63
2023-01-12T12:50:45.774Z,98461.75
2023-01-12T12:53:31.386Z,98460.66
2023-01-12T12:56:00.155Z,98469.47
2023-01-12T12:58:40.185Z,98466.16
2023-01-12T13:01:25.198Z,98463.44
2023-01-12T13:04:00.436Z,98469.91
2023-01-12T13:06:31.173Z,98478.16
2023-01-12T13:09:00.097Z,98468.00
2023-01-12T13:12:09.243Z,98463.41
2023-01-12T13:14:37.877Z,98468.22
2023-01-12T13:17:19.952Z,98462.88
2023-01-12T13:20:10.699Z,98469.00
2023-01-12T13:22:48.891Z,98470.22
2023-01-12T13:25:24.762Z,98465.69
2023-01-12T13:28:00.960Z,98469.78
2023-01-12T13:30:30.840Z,98467.78
2023-01-12T13:33:15.753Z,98462.53
2023-01-12T13:35:46.503Z,98469.37
2023-01-12T13:38:44.378Z,98460.50
2023-01-12T13:41:14.155Z,98461.72
2023-01-12T13:44:01.201Z,98469.78
2023-01-12T13:46:35.314Z,98463.41
2023-01-12T13:49:02.992Z,98464.03
2023-01-12T13:51:38.971Z,98458.94
2023-01-12T13:54:14.952Z,98450.88
2023-01-12T13:56:42.993Z,98454.78
2023-01-12T13:59:18.470Z,98447.69
2023-01-12T14:01:46.932Z,98453.09
2023-01-12T14:04:21.582Z,98447.56
2023-01-12T14:07:19.133Z,98444.59
2023-01-12T14:10:01.141Z,98448.47
2023-01-12T14:12:53.336Z,98448.50
2023-01-12T14:15:57.181Z,98450.25
2023-01-12T14:18:26.070Z,98453.03
2023-01-12T14:21:02.630Z,98442.75
2023-01-12T14:23:31.217Z,98445.84
2023-01-12T14:26:10.311Z,98444.91
2023-01-12T14:28:38.749Z,98445.94
2023-01-12T14:31:07.692Z,98439.25
2023-01-12T14:33:37.245Z,98440.81
2023-01-12T14:36:13.590Z,98438.75
2023-01-12T14:38:41.670Z,98436.47
2023-01-12T14:41:42.110Z,98443.63
2023-01-12T14:44:56.116Z,98446.28
2023-01-12T14:47:29.659Z,98442.25
2023-01-12T14:49:56.665Z,98442.16
2023-01-12T14:52:26.740Z,98442.41
2023-01-12T14:54:53.604Z,98442.12
2023-01-12T14:57:23.476Z,98437.00
2023-01-12T14:59:50.832Z,98444.75
2023-01-12T15:02:25.406Z,98438.91
2023-01-12T15:05:05.960Z,98433.94
2023-01-12T15:07:57.199Z,98435.03
2023-01-12T15:10:35.479Z,98436.16
2023-01-12T15:13:26.120Z,98432.38
2023-01-12T15:16:12.419Z,98432.44
2023-01-12T15:18:57.909Z,98438.44
2023-01-12T15:21:44.159Z,98433.88
2023-01-12T15:24:38.930Z,98431.75
2023-01-12T15:27:07.063Z,98425.75
2023-01-12T15:29:34.152Z,98424.03
2023-01-12T15:32:01.978Z,98429.44
2023-01-12T15:34:28.939Z,98429.59
2023-01-12T15:36:55.818Z,98431.13
2023-01-12T15:39:22.696Z,98434.88
2023-01-12T15:42:07.822Z,98432.06
2023-01-12T15:44:36.610Z,98428.16
2023-01-12T15:47:03.476Z,98437.00
2023-01-12T15:49:30.301Z,98443.22
2023-01-12T15:51:57.173Z,98448.94
2023-01-12T15:54:24.030Z,98453.47
2023-01-12T15:56:50.880Z,98459.34
2023-01-12T15:59:17.751Z,98440.53
2023-01-12T16:01:49.186Z,98436.59
2023-01-12T16:04:42.092Z,98436.78
2023-01-12T16:07:05.499Z,98446.47
2023-01-12T16:09:32.324Z,98451.00
2023-01-12T16:11:58.980Z,98461.00
2023-01-12T16:14:25.905Z,98460.19
2023-01-12T16:16:52.789Z,98452.34
2023-01-12T16:19:21.733Z,98454.00
2023-01-12T16:21:48.747Z,98465.72
2023-01-12T16:24:15.700Z,98461.50
2023-01-12T16:26:42.745Z,98467.66
2023-01-12T16:29:09.641Z,98465.00
2023-01-12T16:31:38.956Z,98459.84
2023-01-12T16:34:06.165Z,98455.06
2023-01-12T16:36:33.684Z,98451.59
2023-01-12T16:39:00.629Z,98454.25
2023-01-12T16:41:27.554Z,98457.41
2023-01-12T16:43:55.079Z,98467.91
2023-01-12T16:46:21.897Z,98467.75
2023-01-12T16:48:48.807Z,98462.97
2023-01-12T16:51:17.317Z,98461.75
2023-01-12T16:53:45.191Z,98452.06
2023-01-12T16:56:14.530Z,98453.53
2023-01-12T16:58:47.835Z,98448.22
2023-01-12T17:01:22.371Z,98444.06
2023-01-12T17:03:51.045Z,98453.66
2023-01-12T17:06:19.995Z,98449.91
2023-01-12T17:08:47.080Z,98452.41
2023-01-12T17:11:19.291Z,98450.66
2023-01-12T17:13:54.346Z,98451.22
2023-01-12T17:16:22.734Z,98456.59
2023-01-12T17:18:51.095Z,98446.22
2023-01-12T17:21:19.153Z,98455.34
2023-01-12T17:23:46.640Z,98454.22
2023-01-12T17:26:20.025Z,98451.41
2023-01-12T17:28:47.489Z,98461.09
2023-01-12T17:31:16.952Z,98451.63
2023-01-12T17:33:43.944Z,98455.53
2023-01-12T17:36:14.291Z,98450.19
2023-01-12T17:38:41.358Z,98444.09
2023-01-12T17:41:33.481Z,98448.88
2023-01-12T17:44:05.220Z,98455.09
2023-01-12T17:46:32.677Z,98449.13
2023-01-12T17:49:00.752Z,98446.59
2023-01-12T17:51:27.878Z,98445.53
2023-01-12T17:53:59.169Z,98444.41
2023-01-12T17:56:27.339Z,98444.88
2023-01-12T17:58:55.196Z,98453.06
2023-01-12T18:01:24.146Z,98452.78
2023-01-12T18:03:51.107Z,98457.41
2023-01-12T18:06:25.754Z,98450.38
2023-01-12T18:08:53.921Z,98446.16
2023-01-12T18:11:20.781Z,98440.84
2023-01-12T18:13:47.654Z,98451.06
2023-01-12T18:16:15.383Z,98439.19
2023-01-12T18:18:44.118Z,98436.34
2023-01-12T18:21:16.363Z,98443.59
2023-01-12T18:23:43.714Z,98432.13
2023-01-12T18:26:19.001Z,98426.38
2023-01-12T18:28:45.957Z,98423.69
2023-01-12T18:31:15.490Z,98422.13
2023-01-12T18:33:42.819Z,98414.91
2023-01-12T18:36:09.724Z,98420.12
2023-01-12T18:38:37.977Z,98414.66
2023-01-12T18:41:23.446Z,98416.56
2023-01-12T18:43:51.767Z,98409.34
2023-01-12T18:46:19.035Z,98398.97
2023-01-12T18:48:47.145Z,98396.56
2023-01-12T18:51:33.512Z,98398.09
2023-01-12T18:54:00.588Z,98394.25
2023-01-12T18:56:27.472Z,98393.28
2023-01-12T18:58:54.339Z,98400.00
2023-01-12T19:01:24.602Z,98397.03
2023-01-12T19:03:52.907Z,98397.00
2023-01-12T19:06:42.799Z,98399.94
2023-01-12T19:09:28.591Z,98396.66
2023-01-12T19:11:55.571Z,98400.47
2023-01-12T19:14:40.771Z,98404.81
2023-01-12T19:17:27.281Z,98403.72
2023-01-12T19:19:55.051Z,98408.56
2023-01-12T19:22:40.651Z,98410.88
2023-01-12T19:25:28.357Z,98402.59
2023-01-12T19:28:13.927Z,98407.75
2023-01-12T19:30:40.820Z,98393.75
2023-01-12T19:33:12.941Z,98403.19
2023-01-12T19:35:41.710Z,98400.72
2023-01-12T19:38:09.018Z,98399.81
2023-01-12T19:40:49.495Z,98404.06
2023-01-12T19:43:20.446Z,98390.00
2023-01-12T19:45:49.286Z,98386.75
2023-01-12T19:48:18.639Z,98387.13
2023-01-12T19:50:45.766Z,98381.84
2023-01-12T19:53:19.200Z,98383.03
2023-01-12T19:55:46.556Z,98385.31
2023-01-12T19:58:13.525Z,98387.31
2023-01-12T20:00:46.394Z,98387.00
2023-01-12T20:03:18.522Z,98384.22
2023-01-12T20:05:47.598Z,98386.72
2023-01-12T20:08:15.325Z,98387.63
2023-01-12T20:10:42.315Z,98376.16
2023-01-12T20:13:13.612Z,98381.38
2023-01-12T20:15:41.600Z,98398.69
2023-01-12T20:18:08.952Z,98397.19
2023-01-12T20:20:35.967Z,98398.94
2023-01-12T20:23:03.199Z,98395.69
2023-01-12T20:25:30.225Z,98395.34
2023-01-12T20:27:57.857Z,98384.47
2023-01-12T20:30:37.448Z,98392.94
2023-01-12T20:33:06.658Z,98393.41
2023-01-12T20:35:35.137Z,98392.50
2023-01-12T20:38:04.482Z,98386.72
2023-01-12T20:40:31.406Z,98387.63
2023-01-12T20:42:58.431Z,98392.94
2023-01-12T20:45:25.276Z,98390.63
2023-01-12T20:47:52.205Z,98377.09
2023-01-12T20:50:19.253Z,98388.00
2023-01-12T20:52:48.241Z,98385.81
2023-01-12T20:55:15.727Z,98382.28
2023-01-12T20:57:42.632Z,98390.59
2023-01-12T21:00:10.839Z,98381.25
2023-01-12T21:02:37.945Z,98380.88
2023-01-12T21:05:05.393Z,98382.19
2023-01-12T21:07:32.259Z,98386.38
2023-01-12T21:09:59.028Z,98395.59
2023-01-12T21:12:27.677Z,98389.72
2023-01-12T21:14:55.181Z,98385.56
2023-01-12T21:17:22.102Z,98384.84
2023-01-12T21:19:48.983Z,98378.59
2023-01-12T21:22:15.974Z,98382.63
2023-01-12T21:24:42.938Z,98373.09
2023-01-12T21:27:09.804Z,98380.69
2023-01-12T21:29:36.446Z,98389.62
2023-01-12T21:32:03.434Z,98382.09
2023-01-12T21:34:30.300Z,98390.91
2023-01-12T21:36:57.207Z,98384.53
2023-01-12T21:39:24.085Z,98380.06
2023-01-12T21:42:09.884Z,98377.28
2023-01-12T21:44:36.785Z,98370.34
2023-01-12T21:47:03.616Z,98370.91
2023-01-12T21:49:30.253Z,98380.38
2023-01-12T21:51:57.075Z,98380.00
2023-01-12T21:54:23.729Z,98377.91
2023-01-12T21:56:50.610Z,98372.47
2023-01-12T21:59:18.595Z,98367.94
2023-01-12T22:01:45.627Z,98372.63
2023-01-12T22:04:12.547Z,98367.63
2023-01-12T22:06:39.472Z,98363.09
2023-01-12T22:09:06.129Z,98364.16
2023-01-12T22:11:33.001Z,98365.09
2023-01-12T22:13:59.679Z,98357.94
2023-01-12T22:16:26.590Z,98363.37
2023-01-12T22:18:53.475Z,98361.84
2023-01-12T22:21:21.326Z,98364.59
2023-01-12T22:23:48.998Z,98360.69
2023-01-12T22:26:16.984Z,98361.47
2023-01-12T22:28:45.037Z,98358.81
2023-01-12T22:31:15.947Z,98353.03
2023-01-12T22:33:47.084Z,98342.81
2023-01-12T22:36:14.549Z,98345.75
2023-01-12T22:38:42.450Z,98344.94
2023-01-12T22:41:11.158Z,98350.00
2023-01-12T22:43:40.899Z,98338.13
2023-01-12T22:46:22.495Z,98333.84
2023-01-12T22:48:56.987Z,98344.63
2023-01-12T22:51:26.148Z,98330.03
2023-01-12T22:53:54.033Z,98326.28
2023-01-12T22:56:20.974Z,98319.56
2023-01-12T22:58:49.633Z,98326.22
2023-01-12T23:01:17.578Z,98325.19
2023-01-12T23:03:45.202Z,98325.53
2023-01-12T23:06:14.708Z,98327.78
2023-01-12T23:08:43.779Z,98324.37
2023-01-12T23:11:25.048Z,98324.06
2023-01-12T23:13:52.845Z,98323.50
2023-01-12T23:16:20.076Z,98328.91
2023-01-12T23:18:48.052Z,98330.13
2023-01-12T23:21:20.725Z,98324.78
2023-01-12T23:23:50.112Z,98324.56
2023-01-12T23:26:38.905Z,98314.31
2023-01-12T23:29:05.752Z,98317.16
2023-01-12T23:31:32.772Z,98322.22
2023-01-12T23:33:59.977Z,98310.59
2023-01-12T23:36:28.316Z,98318.28
2023-01-12T23:38:57.773Z,98320.53
2023-01-12T23:41:25.788Z,98324.59
2023-01-12T23:43:56.379Z,98316.63
2023-01-12T23:46:24.111Z,98308.03
2023-01-12T23:48:52.307Z,98311.00
2023-01-12T23:51:19.223Z,98319.72
2023-01-12T23:53:46.121Z,98319.41
2023-01-12T23:56:15.738Z,98313.41
2023-01-12T23:58:43.698Z,98326.16
